Hlavní strana
METAR-TAF:

METAR-TAF

Letiště :

Førde, Norsko

zeměpisná šířka: 61-27N, zeměpisná délka: 005-52E, výška: 150 m

Aktuální stav počasí

Zpráva byla vytvořena před 37 minutami, v 15:50 UTC
Jižní vítr 6 kt
Teplota 5°C
Vlhkost vzduchu 81%
Tlak 1033 hPa
Viditelnost 10 km a více
Skoro jasno ve výšce 1500 ft
Polojasno ve výšce 2500 ft
Oblačno až skoro zataženo ve výšce 3000 ft

METAR: ENBL 281550Z 19006KT 9999 FEW015 SCT025 BKN030 05/02 Q1033

Čas: 17:27 (16:27 UTC)


TAF: chybějící

Stav a předpovědi počasí z více než 4 000 letišť (zprávy METAR a TAF).

Červené a žluté tečky na mapě představují dostupné meteorologické stanice.

Když kurzor umístíte na tečku, zobrazí se název stanice.

Pak kliknutím zobrazíte stav a předpověď počasí.

Chcete-li změnit mapu, kliknutím na zelené tlačítko se znaménkem +mapu přiblížíte, kliknutím na zelené tlačítko se znaménkem – mapu oddálíte a kliknutím na zelené šipky přejdete na sousední mapy.


METAR-TAF: